Time;durP1;ratioP1;P1;durP2;ratioP2;P2;SDS_P1;SDS_P2;PMS_P1;PMS_P2;Temp;Humidity;BMP_temperature;BMP_pressure;BME280_temperature;BME280_humidity;BME280_pressure;Samples;Min_cycle;Max_cycle;Signal;HPM_P1;HPM_P2
2021/07/22 01:43:23;;;;;;;19.23;12.65;;;24.40;75.70;;;;;;4230758;28;20052;-73
2021/07/22 01:45:26;;;;;;;16.60;11.80;;;24.30;75.50;;;;;;4246895;27;20540;-75
2021/07/22 01:47:29;;;;;;;18.08;12.50;;;24.30;75.70;;;;;;4229332;28;20085;-74
2021/07/22 01:49:32;;;;;;;19.95;12.43;;;24.40;75.40;;;;;;4247088;27;20051;-74
2021/07/22 01:51:35;;;;;;;17.10;12.27;;;24.30;75.50;;;;;;4247257;27;20415;-74
2021/07/22 01:53:38;;;;;;;17.23;12.20;;;24.40;75.30;;;;;;4246744;27;20043;-75
2021/07/22 01:55:41;;;;;;;15.80;11.50;;;24.30;75.90;;;;;;4247136;27;20085;-76
2021/07/22 01:57:44;;;;;;;19.52;12.52;;;24.30;75.40;;;;;;4246868;27;20047;-75
2021/07/22 01:59:49;;;;;;;15.90;11.60;;;24.30;75.60;;;;;;4247006;27;20052;-76
2021/07/22 02:01:52;;;;;;;19.00;12.68;;;24.20;76.20;;;;;;4246499;27;20055;-75
2021/07/22 02:03:55;;;;;;;15.85;12.27;;;24.20;76.50;;;;;;4246860;27;20054;-76
2021/07/22 02:05:58;;;;;;;15.65;12.38;;;24.20;76.80;;;;;;4246890;27;20053;-76
2021/07/22 02:08:01;;;;;;;17.77;12.73;;;24.10;76.20;;;;;;4247037;27;20058;-75
2021/07/22 02:10:06;;;;;;;22.13;12.82;;;24.20;76.20;;;;;;4246776;27;20049;-76
2021/07/22 02:12:09;;;;;;;26.33;14.30;;;24.10;76.60;;;;;;4246688;27;20065;-77
2021/07/22 02:14:12;;;;;;;20.27;13.52;;;24.10;76.40;;;;;;4246666;27;20058;-74
2021/07/22 02:16:17;;;;;;;19.85;13.27;;;24.10;76.80;;;;;;4246898;27;20047;-74
2021/07/22 02:18:20;;;;;;;24.27;12.90;;;24.10;77.70;;;;;;4229075;28;20041;-76
2021/07/22 02:20:23;;;;;;;21.35;13.95;;;24.10;76.90;;;;;;4249150;27;20365;-76
2021/07/22 02:22:26;;;;;;;19.73;13.70;;;23.90;78.00;;;;;;4255490;27;20055;-76
2021/07/22 02:24:29;;;;;;;20.33;12.95;;;23.90;78.20;;;;;;4255155;27;20122;-76
2021/07/22 02:26:33;;;;;;;22.73;13.60;;;24.00;77.40;;;;;;4251501;27;20456;-76
2021/07/22 02:28:36;;;;;;;27.08;13.80;;;24.00;77.90;;;;;;4250209;27;20039;-76
2021/07/22 02:30:39;;;;;;;21.25;14.35;;;24.00;77.80;;;;;;4232496;28;20111;-76
2021/07/22 02:32:44;;;;;;;21.17;14.40;;;24.10;77.20;;;;;;4250916;27;20055;-77
2021/07/22 02:34:47;;;;;;;26.58;13.48;;;24.10;76.90;;;;;;4249066;27;20059;-79
2021/07/22 02:36:50;;;;;;;18.08;13.75;;;24.20;76.20;;;;;;4250234;27;20047;-77
2021/07/22 02:38:53;;;;;;;27.23;14.13;;;24.20;77.10;;;;;;4250523;27;20460;-77
2021/07/22 02:40:56;;;;;;;27.98;15.43;;;24.20;76.70;;;;;;4251193;28;20062;-77
2021/07/22 02:42:59;;;;;;;18.98;13.90;;;24.10;76.80;;;;;;4249058;28;20055;-77
2021/07/22 02:45:03;;;;;;;20.35;14.23;;;24.10;77.30;;;;;;4250923;28;20051;-78
2021/07/22 02:47:09;;;;;;;21.38;15.02;;;24.00;77.40;;;;;;4262632;27;20434;-78
2021/07/22 02:49:14;;;;;;;20.83;13.70;;;23.90;77.80;;;;;;4270405;27;20106;-78
2021/07/22 02:51:17;;;;;;;21.48;13.82;;;23.90;78.10;;;;;;4270399;27;20516;-77
2021/07/22 02:53:20;;;;;;;21.23;13.68;;;23.90;77.80;;;;;;4268761;27;20150;-77
2021/07/22 02:55:23;;;;;;;26.08;14.15;;;23.80;78.20;;;;;;4268837;27;20146;-78
2021/07/22 02:57:28;;;;;;;20.58;14.23;;;23.80;78.10;;;;;;4268812;27;20055;-76
2021/07/22 02:59:31;;;;;;;19.30;12.80;;;23.90;78.40;;;;;;4268846;27;20047;-74
2021/07/22 03:01:34;;;;;;;20.27;13.93;;;23.80;78.50;;;;;;4268894;27;20047;-77
2021/07/22 03:03:37;;;;;;;22.63;13.25;;;23.70;78.70;;;;;;4267906;27;20530;-77
2021/07/22 03:05:41;;;;;;;21.95;14.23;;;23.70;78.80;;;;;;4269848;27;20057;-75
2021/07/22 03:07:45;;;;;;;23.42;14.23;;;23.80;78.40;;;;;;4269406;27;20050;-77
2021/07/22 03:09:48;;;;;;;21.30;13.93;;;23.80;78.70;;;;;;4269556;27;20539;-77
2021/07/22 03:11:51;;;;;;;19.45;14.07;;;23.80;78.50;;;;;;4270005;27;20054;-76
2021/07/22 03:13:54;;;;;;;23.00;14.18;;;23.80;78.40;;;;;;4268539;27;20061;-76
2021/07/22 03:15:57;;;;;;;21.88;14.38;;;23.90;78.20;;;;;;4272964;27;20110;-76
2021/07/22 03:18:01;;;;;;;21.95;14.77;;;23.90;78.60;;;;;;4268654;27;20066;-76
2021/07/22 03:20:05;;;;;;;19.92;14.75;;;23.90;78.30;;;;;;4252859;27;20055;-78
2021/07/22 03:22:09;;;;;;;20.25;14.98;;;23.90;78.40;;;;;;4249489;27;20134;-76
2021/07/22 03:24:12;;;;;;;22.55;15.50;;;23.90;79.10;;;;;;4250063;27;20051;-75
2021/07/22 03:26:18;;;;;;;19.23;14.85;;;23.80;79.00;;;;;;4232047;28;20558;-75
2021/07/22 03:28:21;;;;;;;23.35;14.98;;;23.80;78.70;;;;;;4250100;27;20059;-75
2021/07/22 03:30:24;;;;;;;23.02;15.00;;;23.70;79.10;;;;;;4249926;27;20134;-77
2021/07/22 03:32:27;;;;;;;20.58;14.57;;;23.80;77.90;;;;;;4249748;27;20075;-76
2021/07/22 03:34:29;;;;;;;23.65;14.93;;;23.80;78.70;;;;;;4250008;27;20051;-76
2021/07/22 03:36:33;;;;;;;23.92;15.80;;;23.80;78.80;;;;;;4231226;28;20085;-76
2021/07/22 03:38:37;;;;;;;27.02;15.38;;;23.80;79.00;;;;;;4249488;27;20510;-74
2021/07/22 03:40:40;;;;;;;19.75;14.45;;;23.70;78.90;;;;;;4250292;27;20073;-76
2021/07/22 03:42:43;;;;;;;24.10;15.13;;;23.80;78.30;;;;;;4250757;27;20057;-75
2021/07/22 03:44:46;;;;;;;19.85;14.07;;;23.80;79.00;;;;;;4250509;27;20069;-77
2021/07/22 03:46:49;;;;;;;21.52;15.00;;;23.70;78.70;;;;;;4257408;27;20496;-79
2021/07/22 03:48:52;;;;;;;23.02;15.00;;;23.70;78.80;;;;;;4266405;27;20046;-77
2021/07/22 03:50:55;;;;;;;23.52;14.93;;;23.60;79.90;;;;;;4248856;27;20112;-77
2021/07/22 03:52:59;;;;;;;23.38;14.52;;;23.60;79.60;;;;;;4269078;27;20043;-76
2021/07/22 03:55:04;;;;;;;21.38;14.32;;;23.70;79.30;;;;;;4272028;27;20068;-76
2021/07/22 03:57:07;;;;;;;25.42;13.25;;;23.60;79.70;;;;;;4272321;27;20062;-78
2021/07/22 03:59:10;;;;;;;22.85;13.65;;;23.60;79.10;;;;;;4269686;27;20051;-74
2021/07/22 04:01:13;;;;;;;18.45;13.43;;;23.70;78.20;;;;;;4269371;27;20527;-75
2021/07/22 04:03:16;;;;;;;21.42;14.55;;;23.70;78.20;;;;;;4271062;27;20058;-75
2021/07/22 04:05:19;;;;;;;21.55;14.07;;;23.70;78.30;;;;;;4271264;27;20126;-74
2021/07/22 04:07:22;;;;;;;19.20;12.18;;;23.60;79.80;;;;;;4253081;27;20047;-75
2021/07/22 04:09:26;;;;;;;19.27;13.63;;;23.60;79.20;;;;;;4269952;27;20057;-75
2021/07/22 04:11:30;;;;;;;20.33;13.25;;;23.50;80.00;;;;;;4266602;27;20053;-75
2021/07/22 04:13:34;;;;;;;25.25;13.40;;;23.40;80.30;;;;;;4266746;27;20518;-74
2021/07/22 04:15:37;;;;;;;22.48;13.27;;;23.40;80.50;;;;;;4266417;27;20050;-74
2021/07/22 04:17:40;;;;;;;26.55;13.68;;;23.40;80.40;;;;;;4266228;27;20089;-75
2021/07/22 04:19:43;;;;;;;19.75;13.75;;;23.50;80.10;;;;;;4252056;27;20053;-76
2021/07/22 04:21:46;;;;;;;19.27;13.15;;;23.50;79.90;;;;;;4249168;27;20572;-74
2021/07/22 04:23:49;;;;;;;17.45;12.63;;;23.30;80.60;;;;;;4249527;27;20502;-76
2021/07/22 04:25:52;;;;;;;17.65;12.35;;;23.30;80.40;;;;;;4250771;27;20651;-76
2021/07/22 04:27:57;;;;;;;20.08;12.80;;;23.20;80.60;;;;;;4251261;27;20051;-75
2021/07/22 04:30:01;;;;;;;25.25;13.18;;;23.20;80.60;;;;;;4258114;27;20055;-76
2021/07/22 04:32:05;;;;;;;18.60;12.23;;;23.20;80.50;;;;;;4256946;27;20621;-74
2021/07/22 04:34:08;;;;;;;23.80;12.90;;;23.10;81.40;;;;;;4249026;27;20058;-78
2021/07/22 04:36:11;;;;;;;21.13;13.02;;;22.90;81.60;;;;;;4249226;27;20058;-76
2021/07/22 04:38:14;;;;;;;20.05;12.32;;;22.90;81.50;;;;;;4248468;27;20054;-74
2021/07/22 04:40:17;;;;;;;20.02;12.82;;;22.80;81.90;;;;;;4248617;27;20060;-73
2021/07/22 04:42:20;;;;;;;16.77;11.50;;;22.80;81.90;;;;;;4248638;27;20057;-75
2021/07/22 04:44:26;;;;;;;18.83;11.98;;;22.80;82.20;;;;;;4250208;27;20055;-78
2021/07/22 04:46:29;;;;;;;19.83;11.93;;;22.80;81.80;;;;;;4257399;27;20129;-75
2021/07/22 04:48:33;;;;;;;21.02;12.43;;;22.90;81.60;;;;;;4268019;27;20059;-75
2021/07/22 04:50:36;;;;;;;19.92;11.80;;;22.90;81.50;;;;;;4267596;27;20134;-74
2021/07/22 04:52:39;;;;;;;20.45;13.13;;;22.90;81.80;;;;;;4249896;27;20043;-76
2021/07/22 04:54:42;;;;;;;18.95;11.75;;;23.00;81.40;;;;;;4266271;27;20039;-75
2021/07/22 04:56:45;;;;;;;17.75;12.35;;;23.10;80.70;;;;;;4265407;27;20061;-74
2021/07/22 04:58:48;;;;;;;18.88;12.27;;;23.10;81.10;;;;;;4265769;27;20398;-75
2021/07/22 05:00:53;;;;;;;23.90;12.95;;;23.20;80.60;;;;;;4265296;27;20055;-77
2021/07/22 05:02:58;;;;;;;23.65;13.38;;;23.00;81.20;;;;;;4266490;27;20046;-75
2021/07/22 05:05:01;;;;;;;29.67;13.47;;;23.10;81.20;;;;;;4268204;27;20539;-75
2021/07/22 05:07:05;;;;;;;21.92;13.13;;;23.00;81.50;;;;;;4268615;27;20474;-77
2021/07/22 05:09:08;;;;;;;19.27;12.40;;;23.10;81.30;;;;;;4266888;27;20051;-75
2021/07/22 05:11:11;;;;;;;18.83;12.30;;;23.10;80.80;;;;;;4266101;27;20051;-77
2021/07/22 05:13:14;;;;;;;18.15;13.20;;;23.10;80.70;;;;;;4265449;27;20410;-77
2021/07/22 05:15:18;;;;;;;21.17;12.73;;;23.10;81.40;;;;;;4265529;27;20057;-75
2021/07/22 05:17:22;;;;;;;25.52;14.15;;;23.00;81.50;;;;;;4269650;27;20057;-74
2021/07/22 05:19:25;;;;;;;24.35;14.18;;;23.10;82.00;;;;;;4270505;27;20076;-73
2021/07/22 05:21:28;;;;;;;28.38;13.75;;;23.10;81.70;;;;;;4251955;27;20055;-77
2021/07/22 05:23:32;;;;;;;22.80;13.43;;;23.10;81.80;;;;;;4270137;27;20383;-76
2021/07/22 05:25:36;;;;;;;32.10;13.05;;;23.10;81.80;;;;;;4249065;27;20418;-75
2021/07/22 05:27:39;;;;;;;31.30;13.95;;;23.20;81.90;;;;;;4264995;27;20055;-77
2021/07/22 05:29:42;;;;;;;21.30;13.00;;;23.00;81.80;;;;;;4264884;27;20050;-75
2021/07/22 05:31:45;;;;;;;26.30;12.73;;;23.00;81.80;;;;;;4264241;27;20507;-75
2021/07/22 05:33:50;;;;;;;24.80;13.27;;;23.00;81.80;;;;;;4264237;27;20050;-74
2021/07/22 05:35:53;;;;;;;28.92;13.65;;;23.00;82.00;;;;;;4264184;27;20050;-75
2021/07/22 05:37:55;;;;;;;41.50;14.38;;;23.10;81.80;;;;;;4245384;27;20055;-74
2021/07/22 05:39:59;;;;;;;29.60;13.93;;;23.10;81.90;;;;;;4264006;27;20050;-74
2021/07/22 05:42:03;;;;;;;21.58;13.20;;;23.10;81.90;;;;;;4264002;27;20047;-75
2021/07/22 05:44:06;;;;;;;18.03;12.83;;;23.10;81.60;;;;;;4264549;27;20047;-75
2021/07/22 05:46:09;;;;;;;19.83;12.77;;;23.10;81.70;;;;;;4264863;27;20050;-75
2021/07/22 05:48:12;;;;;;;23.30;14.13;;;23.20;81.10;;;;;;4264144;27;20059;-74
2021/07/22 05:50:16;;;;;;;16.08;12.00;;;23.10;81.50;;;;;;4264387;27;20050;-75
2021/07/22 05:52:19;;;;;;;18.83;12.27;;;23.20;81.10;;;;;;4264687;27;20430;-76
2021/07/22 05:54:23;;;;;;;24.23;12.30;;;23.20;81.00;;;;;;4264570;27;20065;-75
2021/07/22 05:56:26;;;;;;;20.10;12.80;;;23.20;81.00;;;;;;4268127;27;20057;-76
2021/07/22 05:58:30;;;;;;;21.65;11.68;;;23.20;80.60;;;;;;4268536;27;20051;-74
2021/07/22 06:00:35;;;;;;;23.70;12.68;;;23.20;80.50;;;;;;4267333;27;20050;-74
2021/07/22 06:02:38;;;;;;;19.35;13.02;;;23.20;80.50;;;;;;4264152;27;20070;-75
2021/07/22 06:04:42;;;;;;;18.58;11.15;;;23.30;80.50;;;;;;4266530;27;20055;-76
2021/07/22 06:06:46;;;;;;;23.85;13.02;;;23.30;80.10;;;;;;4268199;27;20057;-75
2021/07/22 06:08:50;;;;;;;19.88;12.15;;;23.20;80.20;;;;;;4268427;27;20442;-74
2021/07/22 06:10:53;;;;;;;26.08;12.95;;;23.20;80.40;;;;;;4268121;27;20599;-75
2021/07/22 06:12:56;;;;;;;20.40;12.07;;;23.20;80.20;;;;;;4268342;27;20357;-75
2021/07/22 06:14:59;;;;;;;22.80;11.65;;;23.30;80.00;;;;;;4268211;27;20046;-75
2021/07/22 06:17:02;;;;;;;18.55;12.38;;;23.40;79.60;;;;;;4267533;27;20057;-74
2021/07/22 06:19:06;;;;;;;21.42;12.73;;;23.40;79.40;;;;;;4258923;27;20047;-77
2021/07/22 06:21:13;;;;;;;27.13;13.00;;;23.40;79.40;;;;;;4249234;27;20058;-77
2021/07/22 06:23:17;;;;;;;17.88;12.35;;;23.50;79.30;;;;;;4247046;27;20051;-75
2021/07/22 06:25:20;;;;;;;20.55;11.70;;;23.50;79.50;;;;;;4246789;27;20098;-75
2021/07/22 06:27:23;;;;;;;21.33;12.32;;;23.70;79.00;;;;;;4246128;27;20051;-75
2021/07/22 06:29:26;;;;;;;16.45;11.30;;;23.70;78.70;;;;;;4246847;27;20055;-75
2021/07/22 06:31:30;;;;;;;22.15;12.15;;;23.60;78.70;;;;;;4246563;27;20139;-74
2021/07/22 06:33:33;;;;;;;20.35;11.88;;;23.60;79.10;;;;;;4247442;27;20055;-75
2021/07/22 06:35:36;;;;;;;17.02;11.05;;;23.60;78.90;;;;;;4250538;27;20384;-75
2021/07/22 06:37:43;;;;;;;23.60;12.00;;;23.60;78.80;;;;;;4251830;27;20055;-75
2021/07/22 06:39:47;;;;;;;26.73;12.32;;;23.80;78.80;;;;;;4259082;27;20051;-75
2021/07/22 06:41:56;;;;;;;21.35;12.60;;;23.70;78.90;;;;;;4260983;28;20057;-74
2021/07/22 06:43:59;;;;;;;22.88;12.57;;;23.80;78.70;;;;;;4246663;28;20057;-75
2021/07/22 06:46:02;;;;;;;27.08;13.02;;;23.80;78.80;;;;;;4246504;28;20055;-74
2021/07/22 06:48:06;;;;;;;20.13;12.25;;;23.80;78.60;;;;;;4228729;28;20384;-75
2021/07/22 06:50:10;;;;;;;21.75;12.20;;;23.90;78.40;;;;;;4252412;27;20463;-76
2021/07/22 06:52:13;;;;;;;23.85;11.82;;;23.90;78.40;;;;;;4252492;27;20051;-75
2021/07/22 06:54:17;;;;;;;30.13;12.63;;;23.90;78.50;;;;;;4250529;27;20048;-75
2021/07/22 06:56:21;;;;;;;26.48;11.80;;;24.00;78.50;;;;;;4249905;27;20129;-75
2021/07/22 06:58:24;;;;;;;23.95;11.25;;;24.00;78.10;;;;;;4250598;27;20066;-75
2021/07/22 07:00:27;;;;;;;26.77;11.93;;;24.10;78.10;;;;;;4234652;28;20074;-75
2021/07/22 07:02:30;;;;;;;27.40;12.65;;;24.20;77.80;;;;;;4256484;27;20052;-75
2021/07/22 07:04:33;;;;;;;23.15;11.90;;;24.30;77.40;;;;;;4261180;27;20057;-75
2021/07/22 07:06:37;;;;;;;20.77;11.45;;;24.30;76.90;;;;;;4266815;27;20047;-76
2021/07/22 07:08:40;;;;;;;24.50;11.65;;;24.20;76.00;;;;;;4260885;27;20111;-75
2021/07/22 07:10:43;;;;;;;28.95;11.57;;;24.30;76.30;;;;;;4262415;27;20052;-76
2021/07/22 07:12:49;;;;;;;;;;;24.30;77.00;;;;;;4263566;27;20298;-75
2021/07/22 07:14:52;;;;;;;23.30;11.05;;;24.30;76.10;;;;;;4262322;27;20344;-75
2021/07/22 07:16:55;;;;;;;20.60;11.38;;;24.40;75.40;;;;;;4261212;27;20130;-75
2021/07/22 07:18:58;;;;;;;23.27;11.98;;;24.40;75.20;;;;;;4261698;27;20054;-76
2021/07/22 07:21:03;;;;;;;23.20;10.77;;;24.40;74.70;;;;;;4261946;27;20652;-75
2021/07/22 07:23:06;;;;;;;;;;;24.30;74.10;;;;;;4259862;27;20061;-75
2021/07/22 07:25:10;;;;;;;26.10;12.25;;;24.50;74.30;;;;;;4239333;28;20013;-76
2021/07/22 07:27:13;;;;;;;21.73;11.48;;;24.60;75.20;;;;;;4252654;27;20057;-79
2021/07/22 07:29:18;;;;;;;19.13;11.65;;;24.80;74.00;;;;;;4251495;27;20411;-79
2021/07/22 07:31:22;;;;;;;26.27;11.30;;;24.80;73.90;;;;;;4251382;27;20055;-73
2021/07/22 07:33:27;;;;;;;35.30;12.03;;;25.00;74.00;;;;;;4249512;27;20058;-76
2021/07/22 07:35:31;;;;;;;24.77;12.05;;;25.20;73.90;;;;;;4249465;27;20376;-74
2021/07/22 07:37:34;;;;;;;23.98;11.20;;;25.40;73.40;;;;;;4249127;27;20063;-74
2021/07/22 07:39:37;;;;;;;20.50;10.75;;;25.40;71.60;;;;;;4249528;27;20402;-73
2021/07/22 07:41:40;;;;;;;23.60;11.23;;;25.40;71.20;;;;;;4231286;28;20055;-74
2021/07/22 07:43:43;;;;;;;15.15;10.10;;;25.50;69.70;;;;;;4250311;27;20061;-74
2021/07/22 07:45:48;;;;;;;13.80;10.00;;;25.20;69.00;;;;;;4249255;27;20079;-74
2021/07/22 07:47:51;;;;;;;28.42;10.55;;;25.30;70.00;;;;;;4249393;27;20143;-73
2021/07/22 07:49:54;;;;;;;15.32;10.45;;;25.40;69.20;;;;;;4249683;27;20062;-76
2021/07/22 07:51:57;;;;;;;18.98;10.07;;;25.50;67.90;;;;;;4254085;27;20698;-77
2021/07/22 07:54:00;;;;;;;15.45;9.48;;;25.60;68.20;;;;;;4254290;27;20135;-74
2021/07/22 07:56:04;;;;;;;21.42;9.38;;;25.60;68.50;;;;;;4235709;28;20059;-74
2021/07/22 07:58:07;;;;;;;19.98;9.50;;;25.80;67.70;;;;;;4251609;27;20098;-73
2021/07/22 08:00:11;;;;;;;21.30;10.15;;;25.90;68.10;;;;;;4248626;27;20055;-73
2021/07/22 08:02:16;;;;;;;24.10;10.00;;;25.80;66.80;;;;;;4249305;27;20051;-74
2021/07/22 08:04:20;;;;;;;18.52;9.65;;;25.70;66.90;;;;;;4253654;27;20067;-73
2021/07/22 08:06:23;;;;;;;15.85;9.32;;;25.80;66.70;;;;;;4252752;27;20043;-73
2021/07/22 08:08:26;;;;;;;20.48;9.50;;;25.70;65.10;;;;;;4252055;27;20505;-74
2021/07/22 08:10:29;;;;;;;21.35;9.70;;;25.70;64.30;;;;;;4251948;27;20061;-73
2021/07/22 08:12:32;;;;;;;14.43;9.25;;;25.60;65.20;;;;;;4251596;27;20069;-73
2021/07/22 08:14:38;;;;;;;17.80;9.50;;;25.60;64.60;;;;;;4249885;27;20660;-73
2021/07/22 08:16:42;;;;;;;19.60;10.50;;;25.70;65.90;;;;;;4230611;28;20056;-74
2021/07/22 08:18:50;;;;;;;19.85;9.68;;;25.80;65.90;;;;;;4263357;27;20061;-74
2021/07/22 08:20:53;;;;;;;14.77;9.50;;;25.80;64.40;;;;;;4266654;27;20192;-76
2021/07/22 08:22:56;;;;;;;21.50;9.75;;;25.80;65.00;;;;;;4266856;27;20063;-76
2021/07/22 08:24:59;;;;;;;16.85;8.98;;;25.70;63.90;;;;;;4267574;27;20057;-76
2021/07/22 08:27:03;;;;;;;13.20;8.85;;;25.60;63.90;;;;;;4268421;27;20043;-74
2021/07/22 08:29:06;;;;;;;18.05;9.43;;;25.50;63.50;;;;;;4267664;27;20054;-77
2021/07/22 08:31:09;;;;;;;16.25;9.73;;;25.60;64.10;;;;;;4248158;27;20160;-79
2021/07/22 08:33:12;;;;;;;23.23;9.70;;;25.70;64.60;;;;;;4256894;27;20051;-74
2021/07/22 08:35:16;;;;;;;17.70;9.73;;;25.70;64.90;;;;;;4248888;27;20062;-74
2021/07/22 08:37:19;;;;;;;19.38;10.25;;;25.80;65.20;;;;;;4249380;27;20434;-73
2021/07/22 08:39:22;;;;;;;22.92;9.43;;;25.90;64.70;;;;;;4230692;27;20056;-75
2021/07/22 08:41:26;;;;;;;18.50;9.70;;;26.00;65.40;;;;;;4248621;27;20507;-74
2021/07/22 08:43:31;;;;;;;18.98;9.95;;;25.90;64.60;;;;;;4248886;27;20642;-75
2021/07/22 08:45:35;;;;;;;19.65;10.75;;;26.20;64.70;;;;;;4254632;27;20475;-74
2021/07/22 08:47:40;;;;;;;20.58;9.60;;;26.20;64.10;;;;;;4263970;27;20434;-73
2021/07/22 08:49:43;;;;;;;17.67;10.23;;;26.20;64.60;;;;;;4273449;27;20058;-74
2021/07/22 08:51:47;;;;;;;17.20;9.25;;;26.30;63.60;;;;;;4277215;27;20078;-73
2021/07/22 08:53:51;;;;;;;18.27;9.82;;;26.40;63.90;;;;;;4270471;27;20467;-75
2021/07/22 08:55:58;;;;;;;17.33;10.20;;;26.50;63.80;;;;;;4271138;27;20042;-73
2021/07/22 08:58:03;;;;;;;25.05;10.43;;;26.60;63.40;;;;;;4271046;27;20046;-73
2021/07/22 09:00:07;;;;;;;20.27;10.02;;;26.60;63.50;;;;;;4267935;27;20130;-74
2021/07/22 09:02:18;;;;;;;23.85;11.02;;;26.50;62.40;;;;;;4269785;27;20055;-74
2021/07/22 09:04:21;;;;;;;15.68;9.88;;;26.50;62.80;;;;;;4271906;27;20277;-73
2021/07/22 09:06:24;;;;;;;23.20;10.02;;;26.50;62.60;;;;;;4256878;27;20633;-74
2021/07/22 09:08:29;;;;;;;17.60;10.02;;;26.50;62.70;;;;;;4268609;27;20047;-73
2021/07/22 09:10:32;;;;;;;21.92;10.48;;;26.50;63.00;;;;;;4267589;27;20067;-76
2021/07/22 09:12:36;;;;;;;18.77;10.43;;;26.50;63.20;;;;;;4275825;27;20052;-74
2021/07/22 09:14:56;;;;;;;19.52;9.68;;;26.70;63.20;;;;;;4277166;27;20062;-73
2021/07/22 09:17:27;;;;;;;26.90;10.82;;;26.70;63.20;;;;;;4269040;27;20046;-76
2021/07/22 09:19:32;;;;;;;12.45;10.23;;;26.70;63.60;;;;;;4266098;27;20054;-74
2021/07/22 09:21:39;;;;;;;;;;;26.80;63.90;;;;;;4267776;27;20055;-75
2021/07/22 09:24:05;;;;;;;22.85;10.38;;;26.70;62.90;;;;;;4267943;27;19918;-74
2021/07/22 09:26:08;;;;;;;18.10;10.38;;;26.70;63.70;;;;;;4265336;27;20161;-73
2021/07/22 09:28:13;;;;;;;21.17;9.85;;;26.80;63.60;;;;;;4267739;27;20142;-74
2021/07/22 09:30:17;;;;;;;18.83;10.18;;;26.90;63.70;;;;;;4265345;27;20554;-75
2021/07/22 09:32:29;;;;;;;25.92;11.77;;;26.90;63.30;;;;;;4267285;27;20440;-74
2021/07/22 09:34:32;;;;;;;20.15;10.23;;;26.80;63.40;;;;;;4266303;27;20046;-74
2021/07/22 09:36:35;;;;;;;20.52;10.63;;;26.90;63.50;;;;;;4266712;27;20151;-75
2021/07/22 09:38:38;;;;;;;19.33;10.25;;;26.90;63.50;;;;;;4266778;27;20557;-75
2021/07/22 09:40:43;;;;;;;22.48;11.18;;;27.00;63.20;;;;;;4265208;27;20062;-76
2021/07/22 09:42:48;;;;;;;17.60;10.40;;;26.90;62.90;;;;;;4264583;27;20042;-75
2021/07/22 09:44:51;;;;;;;15.32;10.15;;;26.90;63.30;;;;;;4264497;27;20051;-76
2021/07/22 09:46:55;;;;;;;19.95;10.52;;;26.80;63.00;;;;;;4246132;27;20076;-76
2021/07/22 09:49:08;;;;;;;15.93;10.15;;;26.90;63.20;;;;;;4265004;27;20122;-77
2021/07/22 09:51:31;;;;;;;26.77;10.65;;;26.90;63.00;;;;;;4262976;27;20043;-75
2021/07/22 09:53:35;;;;;;;15.75;9.52;;;27.10;62.60;;;;;;4263193;27;20057;-74
2021/07/22 09:55:39;;;;;;;14.55;9.10;;;27.20;62.70;;;;;;4264215;27;20130;-76
2021/07/22 09:57:44;;;;;;;17.23;10.73;;;27.10;62.30;;;;;;4254687;27;20115;-76
2021/07/22 09:59:48;;;;;;;15.57;9.65;;;26.90;62.30;;;;;;4258449;27;20486;-75
2021/07/22 10:01:53;;;;;;;17.02;10.65;;;26.90;62.60;;;;;;4264485;27;20053;-76
2021/07/22 10:03:58;;;;;;;22.63;9.57;;;27.00;62.70;;;;;;4261891;27;20538;-75
2021/07/22 10:06:05;;;;;;;17.98;9.52;;;26.80;62.20;;;;;;4264408;27;20559;-75
2021/07/22 10:08:09;;;;;;;19.75;8.88;;;26.90;62.70;;;;;;4262031;27;20049;-77
2021/07/22 10:10:12;;;;;;;17.15;8.75;;;26.90;62.70;;;;;;4263860;27;20051;-75
2021/07/22 10:12:18;;;;;;;19.83;8.90;;;27.20;62.50;;;;;;4263483;27;20368;-77
2021/07/22 10:14:24;;;;;;;15.57;9.13;;;27.30;62.30;;;;;;4261106;27;20426;-76
2021/07/22 10:16:28;;;;;;;13.32;9.43;;;27.30;61.90;;;;;;4265766;27;20046;-74
2021/07/22 10:18:33;;;;;;;16.30;9.55;;;27.40;61.70;;;;;;4266128;27;20129;-74
2021/07/22 10:20:36;;;;;;;;;;;27.40;61.90;;;;;;4271237;27;20062;-76
2021/07/22 10:22:43;;;;;;;14.05;9.77;;;27.60;61.70;;;;;;4272472;27;19919;-74
2021/07/22 10:24:47;;;;;;;15.00;9.77;;;27.70;61.60;;;;;;4249439;27;20055;-77
2021/07/22 10:26:51;;;;;;;15.70;8.63;;;27.70;61.60;;;;;;4245581;27;20109;-74
2021/07/22 10:28:55;;;;;;;13.25;8.90;;;27.80;61.10;;;;;;4263502;27;20167;-73
2021/07/22 10:31:02;;;;;;;18.55;10.07;;;27.70;60.50;;;;;;4260257;27;20050;-73
2021/07/22 10:33:06;;;;;;;13.45;9.13;;;27.80;61.10;;;;;;4260516;27;20134;-74
2021/07/22 10:35:10;;;;;;;14.10;8.25;;;27.90;60.80;;;;;;4261829;27;20051;-74
2021/07/22 10:37:17;;;;;;;14.35;8.07;;;28.00;60.80;;;;;;4262584;27;20483;-74
2021/07/22 10:39:56;;;;;;;11.45;8.77;;;27.90;60.30;;;;;;4245550;27;20059;-73
2021/07/22 10:41:59;;;;;;;14.00;8.38;;;27.80;60.90;;;;;;4260193;27;20049;-75
2021/07/22 10:44:04;;;;;;;10.15;7.97;;;28.00;60.30;;;;;;4246165;27;20035;-75
2021/07/22 10:46:10;;;;;;;20.77;8.82;;;28.10;59.60;;;;;;4269559;27;20054;-76
2021/07/22 10:48:25;;;;;;;10.10;8.57;;;28.00;59.40;;;;;;4271544;27;20114;-71
2021/07/22 10:51:11;;;;;;;15.65;8.82;;;27.90;60.20;;;;;;4266496;27;20138;-76
2021/07/22 10:53:14;;;;;;;13.38;8.52;;;28.00;59.70;;;;;;4263661;27;20491;-74
2021/07/22 10:55:46;;;;;;;12.48;7.72;;;28.10;59.40;;;;;;4263284;27;20054;-74
2021/07/22 10:57:50;;;;;;;12.63;8.45;;;28.00;58.80;;;;;;4268316;27;20100;-73
2021/07/22 10:59:54;;;;;;;13.07;8.65;;;28.00;58.70;;;;;;4248974;28;20066;-71
2021/07/22 11:01:59;;;;;;;13.25;8.45;;;28.10;60.10;;;;;;4245329;27;20047;-71
2021/07/22 11:04:02;;;;;;;13.60;7.82;;;28.00;58.60;;;;;;4246753;27;20488;-72
2021/07/22 11:06:06;;;;;;;11.35;8.35;;;28.00;59.00;;;;;;4246570;27;20051;-72
2021/07/22 11:08:20;;;;;;;11.27;8.27;;;27.90;58.90;;;;;;4246058;28;20061;-70
2021/07/22 11:10:50;;;;;;;18.45;8.95;;;27.90;58.60;;;;;;4228208;28;20046;-71
2021/07/22 11:12:55;;;;;;;14.23;8.23;;;28.10;59.50;;;;;;4224098;28;20497;-71
2021/07/22 11:15:00;;;;;;;12.40;8.68;;;28.10;58.80;;;;;;4245946;28;20147;-73
2021/07/22 11:17:04;;;;;;;12.55;8.45;;;28.10;59.30;;;;;;4246216;28;20430;-73
2021/07/22 11:19:13;;;;;;;14.07;9.18;;;27.90;58.60;;;;;;4245819;27;20130;-72
2021/07/22 11:21:18;;;;;;;12.68;8.45;;;28.10;59.10;;;;;;4246231;28;20415;-73
2021/07/22 11:23:21;;;;;;;17.33;8.18;;;28.10;59.30;;;;;;4251876;28;20055;-73
2021/07/22 11:25:26;;;;;;;9.43;7.43;;;28.20;59.20;;;;;;4252986;28;20120;-73
2021/07/22 11:27:29;;;;;;;;;;;28.40;59.10;;;;;;4253444;28;20108;-73
2021/07/22 11:29:32;;;;;;;13.55;8.85;;;28.40;59.00;;;;;;4249330;28;20007;-72
2021/07/22 11:31:39;;;;;;;11.75;8.80;;;28.20;58.00;;;;;;4250605;28;20051;-73
2021/07/22 11:33:43;;;;;;;12.55;7.53;;;28.20;58.10;;;;;;4252349;27;20051;-71
2021/07/22 11:35:55;;;;;;;14.93;8.32;;;28.40;58.50;;;;;;4249542;27;20065;-73
2021/07/22 11:37:59;;;;;;;17.02;8.40;;;28.50;58.50;;;;;;4231218;28;20407;-73
2021/07/22 11:40:07;;;;;;;15.65;8.63;;;28.30;58.40;;;;;;4249516;27;20059;-72
2021/07/22 11:42:13;;;;;;;12.15;8.27;;;28.10;58.40;;;;;;4248894;27;20055;-71
2021/07/22 11:44:18;;;;;;;15.07;7.78;;;28.10;58.50;;;;;;4249423;27;20051;-73
2021/07/22 11:46:39;;;;;;;13.02;7.70;;;28.30;58.80;;;;;;4257074;27;20059;-74
2021/07/22 11:48:44;;;;;;;12.60;8.45;;;28.40;58.60;;;;;;4265324;27;20133;-74
2021/07/22 11:50:57;;;;;;;;;;;28.50;58.80;;;;;;4263647;27;20051;-72
2021/07/22 11:53:19;;;;;;;14.10;8.43;;;28.50;58.60;;;;;;4266256;27;20240;-73
2021/07/22 11:55:27;;;;;;;25.42;8.93;;;28.70;59.00;;;;;;4264704;27;20047;-72
2021/07/22 11:57:35;;;;;;;13.30;8.55;;;28.60;58.50;;;;;;4262760;27;20137;-73
2021/07/22 11:59:38;;;;;;;13.23;8.82;;;28.60;58.30;;;;;;4266013;27;20119;-75
2021/07/22 12:01:49;;;;;;;18.15;8.48;;;28.60;58.70;;;;;;4267156;27;20597;-75
2021/07/22 12:03:54;;;;;;;10.38;8.50;;;28.70;58.80;;;;;;4264293;27;20047;-75
2021/07/22 12:05:57;;;;;;;10.82;7.95;;;28.80;58.70;;;;;;4265428;27;20059;-74
2021/07/22 12:08:16;;;;;;;13.18;8.75;;;28.70;58.10;;;;;;4265423;27;20541;-75
2021/07/22 12:10:26;;;;;;;11.18;8.30;;;28.80;58.40;;;;;;4262655;27;20051;-73
2021/07/22 12:12:29;;;;;;;10.45;7.72;;;28.90;58.20;;;;;;4263128;27;20081;-73
2021/07/22 12:14:38;;;;;;;17.48;8.35;;;29.10;58.10;;;;;;4265650;27;20043;-72
2021/07/22 12:16:42;;;;;;;11.85;7.85;;;28.90;57.80;;;;;;4266174;27;20213;-72
2021/07/22 12:18:48;;;;;;;10.80;8.07;;;29.00;58.40;;;;;;4266384;27;20074;-74